createdAt,value
2023-01-13T00:00:34.946Z,6.57
2023-01-13T00:05:40.101Z,6.28
2023-01-13T00:10:48.972Z,5.60
2023-01-13T00:15:57.529Z,11.00
2023-01-13T00:21:04.006Z,12.93
2023-01-13T00:26:11.726Z,9.15
2023-01-13T00:31:17.922Z,6.18
2023-01-13T00:36:22.365Z,8.88
2023-01-13T00:41:31.469Z,12.63
2023-01-13T00:46:35.783Z,7.38
2023-01-13T00:51:39.871Z,5.85
2023-01-13T00:56:45.619Z,6.53
2023-01-13T01:01:49.779Z,5.72
2023-01-13T01:06:54.087Z,7.80
2023-01-13T01:11:59.915Z,7.75
2023-01-13T01:17:03.976Z,11.75
2023-01-13T01:22:08.012Z,11.82
2023-01-13T01:27:13.356Z,16.33
2023-01-13T01:32:17.477Z,11.40
2023-01-13T01:37:21.452Z,13.23
2023-01-13T01:42:44.670Z,18.77
2023-01-13T01:47:51.468Z,15.45
2023-01-13T01:53:01.054Z,14.13
2023-01-13T01:58:11.927Z,11.75
2023-01-13T02:03:17.497Z,12.82
2023-01-13T02:08:24.116Z,10.25
2023-01-13T02:13:31.301Z,11.95
2023-01-13T02:18:50.150Z,12.82
2023-01-13T02:24:49.911Z,10.43
2023-01-13T02:30:22.831Z,8.77
2023-01-13T02:35:31.587Z,7.30
2023-01-13T02:40:41.884Z,9.35
2023-01-13T02:45:53.170Z,10.93
2023-01-13T02:51:01.525Z,11.73
2023-01-13T02:56:07.639Z,11.85
2023-01-13T03:01:13.174Z,13.65
2023-01-13T03:06:33.153Z,10.15
2023-01-13T03:11:45.874Z,11.55
2023-01-13T03:17:06.512Z,10.43
2023-01-13T03:22:22.461Z,13.95
2023-01-13T03:27:31.341Z,14.45
2023-01-13T03:32:41.830Z,13.43
2023-01-13T03:37:53.087Z,9.45
2023-01-13T03:43:19.901Z,7.85
2023-01-13T03:48:28.949Z,6.20
2023-01-13T03:53:36.918Z,6.22
2023-01-13T03:58:44.522Z,4.22
2023-01-13T04:03:58.619Z,31.02
2023-01-13T04:09:15.379Z,14.68
2023-01-13T04:14:22.612Z,9.07
2023-01-13T04:19:28.662Z,8.55
2023-01-13T04:24:33.637Z,10.00
2023-01-13T04:29:37.627Z,11.25
2023-01-13T04:34:43.879Z,13.95
2023-01-13T04:39:48.158Z,19.63
2023-01-13T04:44:52.415Z,21.55
2023-01-13T04:49:58.166Z,21.13
2023-01-13T04:55:02.275Z,27.02
2023-01-13T05:00:08.636Z,33.67
2023-01-13T05:05:13.978Z,45.38
2023-01-13T05:10:20.075Z,35.88
2023-01-13T05:15:42.334Z,30.35
2023-01-13T05:20:47.958Z,38.95
2023-01-13T05:25:52.051Z,44.95
2023-01-13T05:30:56.304Z,38.30
2023-01-13T05:36:03.486Z,25.25
2023-01-13T05:41:25.162Z,18.10
2023-01-13T05:46:29.345Z,17.70
2023-01-13T05:51:34.963Z,13.25
2023-01-13T05:56:39.188Z,30.83
2023-01-13T06:01:43.243Z,29.83
2023-01-13T06:06:49.059Z,26.25
2023-01-13T06:11:53.632Z,29.13
2023-01-13T06:16:57.551Z,25.42
2023-01-13T06:22:09.797Z,22.42
2023-01-13T06:27:14.684Z,24.63
2023-01-13T06:32:22.105Z,30.00
2023-01-13T06:37:29.866Z,28.90
2023-01-13T06:42:55.539Z,31.33
2023-01-13T06:48:00.932Z,32.05
2023-01-13T06:53:06.498Z,28.38
2023-01-13T06:58:11.247Z,23.58
2023-01-13T07:03:18.642Z,22.35
2023-01-13T07:08:25.489Z,22.67
2023-01-13T07:13:58.726Z,24.08
2023-01-13T07:19:02.787Z,21.55
2023-01-13T07:24:08.888Z,23.83
2023-01-13T07:29:13.852Z,17.70
2023-01-13T07:34:19.339Z,17.52
2023-01-13T07:39:24.841Z,14.52
2023-01-13T07:44:29.073Z,16.45
2023-01-13T07:49:33.351Z,15.45
2023-01-13T07:54:41.214Z,13.27
2023-01-13T07:59:45.913Z,14.32
2023-01-13T08:04:50.263Z,18.55
2023-01-13T08:09:55.792Z,16.55
2023-01-13T08:14:59.909Z,8.68
2023-01-13T08:20:04.210Z,10.65
2023-01-13T08:25:10.351Z,10.60
2023-01-13T08:30:14.776Z,9.02
2023-01-13T08:35:19.847Z,12.55
2023-01-13T08:40:26.877Z,7.15
2023-01-13T08:45:31.042Z,10.80
2023-01-13T08:50:35.740Z,8.05
2023-01-13T08:55:42.983Z,7.75
2023-01-13T09:00:47.298Z,7.30
2023-01-13T09:05:51.267Z,8.52
2023-01-13T09:10:56.782Z,7.88
2023-01-13T09:16:01.240Z,13.63
2023-01-13T09:21:06.350Z,9.23
2023-01-13T09:26:12.927Z,10.02
2023-01-13T09:31:17.170Z,7.25
2023-01-13T09:36:21.513Z,5.43
2023-01-13T09:41:46.757Z,6.00
2023-01-13T09:46:55.185Z,6.57
2023-01-13T09:52:09.292Z,7.38
2023-01-13T09:57:17.218Z,6.25
2023-01-13T10:02:36.507Z,6.53
2023-01-13T10:07:49.584Z,6.45
2023-01-13T10:13:12.890Z,7.30
2023-01-13T10:18:24.411Z,6.80
2023-01-13T10:23:42.190Z,4.47
2023-01-13T10:28:54.285Z,4.63
2023-01-13T10:34:04.336Z,5.80
2023-01-13T10:39:11.271Z,10.07
2023-01-13T10:44:18.855Z,11.35
2023-01-13T10:49:36.454Z,7.75
2023-01-13T10:54:53.909Z,7.70
2023-01-13T10:59:59.807Z,6.60
2023-01-13T11:05:17.915Z,5.97
2023-01-13T11:10:24.781Z,8.68
2023-01-13T11:15:40.821Z,9.07
2023-01-13T11:20:47.818Z,5.30
2023-01-13T11:25:57.802Z,2.80
2023-01-13T11:31:12.842Z,4.38
2023-01-13T11:36:21.504Z,3.70
2023-01-13T11:41:33.410Z,3.10
2023-01-13T11:46:47.649Z,5.38
2023-01-13T11:51:59.164Z,7.80
2023-01-13T11:57:34.841Z,5.25
2023-01-13T12:02:54.438Z,4.85
2023-01-13T12:08:11.142Z,4.30
2023-01-13T12:13:26.894Z,5.85
2023-01-13T12:19:25.639Z,5.22
2023-01-13T12:24:34.569Z,15.60
2023-01-13T12:29:40.306Z,7.40
2023-01-13T12:34:59.233Z,4.72
2023-01-13T12:40:16.964Z,7.23
2023-01-13T12:45:43.908Z,6.10
2023-01-13T12:51:01.836Z,3.72
2023-01-13T12:56:43.324Z,4.55
2023-01-13T13:01:49.698Z,5.13
2023-01-13T13:07:08.691Z,4.00
2023-01-13T13:13:10.573Z,6.57
2023-01-13T13:18:30.833Z,4.85
2023-01-13T13:24:00.597Z,4.88
2023-01-13T13:29:30.007Z,5.18
2023-01-13T13:34:41.410Z,5.57
2023-01-13T13:40:04.774Z,4.85
2023-01-13T13:45:34.930Z,8.32
2023-01-13T13:50:48.774Z,4.28
2023-01-13T13:56:00.050Z,10.38
2023-01-13T14:01:06.423Z,10.63
2023-01-13T14:06:24.378Z,6.32
2023-01-13T14:11:36.424Z,12.55
2023-01-13T14:16:41.989Z,5.43
2023-01-13T14:21:50.173Z,5.85
2023-01-13T14:27:09.255Z,12.68
2023-01-13T14:32:19.307Z,11.38
2023-01-13T14:37:36.568Z,6.57
2023-01-13T14:42:43.744Z,3.78
2023-01-13T14:47:53.803Z,4.85
2023-01-13T14:53:00.815Z,7.78
2023-01-13T14:58:29.910Z,11.82
2023-01-13T15:03:42.676Z,9.05
2023-01-13T15:08:47.106Z,12.50
2023-01-13T15:13:58.883Z,8.23
2023-01-13T15:19:03.446Z,8.90
2023-01-13T15:24:08.705Z,7.05
2023-01-13T15:29:17.431Z,22.27
2023-01-13T15:34:23.525Z,24.50
2023-01-13T15:39:27.797Z,19.98
2023-01-13T15:44:50.794Z,13.88
2023-01-13T15:49:55.935Z,15.23
2023-01-13T15:55:00.292Z,15.80
2023-01-13T16:00:14.383Z,20.10
2023-01-13T16:05:18.880Z,19.42
2023-01-13T16:10:25.954Z,21.13
2023-01-13T16:15:31.523Z,15.77
2023-01-13T16:20:37.027Z,14.77
2023-01-13T16:25:43.145Z,14.20
2023-01-13T16:30:49.887Z,10.95
2023-01-13T16:36:09.793Z,8.27
2023-01-13T16:41:16.835Z,8.82
2023-01-13T16:46:29.935Z,10.30
2023-01-13T16:51:34.765Z,7.25
2023-01-13T16:56:40.893Z,12.10
2023-01-13T17:01:47.295Z,27.63
2023-01-13T17:06:58.396Z,27.88
2023-01-13T17:12:03.600Z,29.67
2023-01-13T17:17:21.313Z,23.75
2023-01-13T17:22:26.824Z,23.40
2023-01-13T17:27:31.145Z,30.50
2023-01-13T17:32:36.979Z,19.20
2023-01-13T17:37:41.195Z,11.48
2023-01-13T17:42:45.508Z,10.30
2023-01-13T17:47:51.088Z,11.77
2023-01-13T17:52:55.500Z,10.75
2023-01-13T17:57:59.862Z,12.40
2023-01-13T18:03:05.707Z,13.55
2023-01-13T18:08:10.706Z,13.65
2023-01-13T18:13:14.883Z,11.65
2023-01-13T18:18:20.797Z,16.35
2023-01-13T18:23:43.060Z,16.92
2023-01-13T18:28:47.215Z,26.73
2023-01-13T18:33:55.783Z,24.23
2023-01-13T18:39:00.133Z,22.15
2023-01-13T18:44:04.664Z,11.15
2023-01-13T18:49:10.850Z,11.00
2023-01-13T18:54:15.195Z,13.30
2023-01-13T18:59:20.866Z,24.52
2023-01-13T19:04:26.599Z,23.25
2023-01-13T19:09:33.653Z,18.80
2023-01-13T19:14:38.618Z,24.85
2023-01-13T19:19:46.956Z,28.33
2023-01-13T19:24:54.060Z,12.10
2023-01-13T19:30:01.111Z,12.82
2023-01-13T19:35:13.241Z,13.07
2023-01-13T19:40:18.268Z,16.38
2023-01-13T19:45:30.798Z,32.00
2023-01-13T19:50:42.316Z,28.80
2023-01-13T19:55:48.733Z,25.90
2023-01-13T20:00:57.197Z,26.05
2023-01-13T20:06:09.508Z,36.75
2023-01-13T20:11:31.295Z,27.17
2023-01-13T20:16:35.946Z,25.48
2023-01-13T20:21:45.261Z,22.20
2023-01-13T20:26:50.966Z,20.05
2023-01-13T20:31:56.226Z,19.63
2023-01-13T20:37:01.904Z,21.50
2023-01-13T20:42:38.162Z,20.13
2023-01-13T20:47:42.795Z,22.70
2023-01-13T20:52:49.883Z,23.42
2023-01-13T20:57:54.055Z,21.75
2023-01-13T21:02:59.777Z,28.38
2023-01-13T21:08:05.805Z,29.10
2023-01-13T21:13:31.282Z,22.70
2023-01-13T21:18:54.533Z,24.63
2023-01-13T21:24:05.044Z,17.75
2023-01-13T21:29:12.663Z,15.40
2023-01-13T21:34:19.543Z,10.13
2023-01-13T21:39:26.218Z,9.50
2023-01-13T21:44:48.883Z,15.05
2023-01-13T21:49:54.585Z,15.07
2023-01-13T21:55:21.604Z,13.35
2023-01-13T22:00:27.572Z,10.13
2023-01-13T22:05:32.080Z,12.00
2023-01-13T22:10:57.455Z,9.38
2023-01-13T22:16:05.267Z,12.07
2023-01-13T22:21:10.144Z,15.82
2023-01-13T22:26:16.029Z,13.50
2023-01-13T22:31:23.862Z,13.05
2023-01-13T22:36:27.997Z,10.13
2023-01-13T22:41:33.434Z,11.20
2023-01-13T22:46:37.694Z,10.75
2023-01-13T22:51:42.417Z,9.30
2023-01-13T22:56:48.394Z,13.65
2023-01-13T23:01:52.374Z,13.30
2023-01-13T23:06:56.451Z,11.05
2023-01-13T23:12:02.218Z,10.25
2023-01-13T23:17:07.190Z,9.57
2023-01-13T23:22:13.184Z,10.45
2023-01-13T23:27:18.708Z,6.80
2023-01-13T23:32:22.712Z,10.30
2023-01-13T23:37:27.881Z,22.83
2023-01-13T23:42:33.435Z,23.88
2023-01-13T23:47:37.481Z,22.50
2023-01-13T23:52:41.682Z,17.67
2023-01-13T23:57:47.161Z,15.07
